Simpsons, Virginia
Current Conditions -  °F | °C
As of 11:35 PM on Saturday 20 Dec 2014 (Local Time) from KBCB Reporting Station
Overcast Overcast  
Wind Chill: 34°   Ceiling: 1400
Heat Index: 34°   Visibility: 7mi
Dew Point: 31°   Wind: 0mph
Humidity: 90%   Direction: NA
Pressure: 30.22"   Gusts: NA
Location:  37.0318°N, 80.2402°W
Report Text: KBCB 210435Z AUTO 00000KT 7SM BKN014 BKN038 OVC047 01/00 A3022 RMK AO2 T00101005
Loading
Personal Weather Stations






























Interactive Weather Map New forecast layout! Learn more

10-Day Weather Forecast

Advertisements
Track Severe Weather on mobile